Time;durP1;ratioP1;P1;durP2;ratioP2;P2;SDS_P1;SDS_P2;PMS_P1;PMS_P2;Temp;Humidity;BMP_temperature;BMP_pressure;BME280_temperature;BME280_humidity;BME280_pressure;Samples;Min_cycle;Max_cycle;Signal;HPM_P1;HPM_P2
2021/10/28 00:14:26;;;;;;;24.27;14.23;;;;;;;6.53;100.00;97224.50;4991369;28;20487;-61
2021/10/28 00:16:53;;;;;;;25.45;15.27;;;;;;;6.64;100.00;97216.78;4983908;28;20045;-62
2021/10/28 00:19:19;;;;;;;27.02;16.35;;;;;;;6.64;100.00;97214.06;4980193;28;20042;-61
2021/10/28 00:21:45;;;;;;;30.75;15.40;;;;;;;6.18;100.00;97213.78;4983301;28;20039;-62
2021/10/28 00:24:13;;;;;;;27.95;16.38;;;;;;;5.77;100.00;97217.03;4974716;28;20117;-60
2021/10/28 00:26:41;;;;;;;31.23;17.90;;;;;;;5.72;100.00;97216.06;4981645;28;20046;-61
2021/10/28 00:29:09;;;;;;;32.80;18.08;;;;;;;5.71;100.00;97221.84;4978093;28;20042;-61
2021/10/28 00:31:38;;;;;;;31.80;18.10;;;;;;;5.89;100.00;97228.84;4982136;28;20046;-62
2021/10/28 00:34:07;;;;;;;35.22;19.65;;;;;;;6.08;100.00;97222.28;4980026;28;20034;-62
2021/10/28 00:36:33;;;;;;;31.83;17.27;;;;;;;6.24;100.00;97225.28;4979577;28;20046;-61
2021/10/28 00:38:59;;;;;;;28.25;16.67;;;;;;;6.44;100.00;97223.75;4979451;28;20046;-61
2021/10/28 00:41:25;;;;;;;29.23;16.58;;;;;;;6.62;100.00;97224.47;4976637;28;20523;-60
2021/10/28 00:43:58;;;;;;;31.23;17.25;;;;;;;6.68;100.00;97229.41;4980383;28;20055;-62
2021/10/28 00:46:27;;;;;;;28.73;17.80;;;;;;;6.66;100.00;97230.84;4975732;28;20764;-61
2021/10/28 00:48:53;;;;;;;32.05;17.48;;;;;;;6.76;100.00;97240.59;4980848;28;20503;-61
2021/10/28 00:51:21;;;;;;;30.38;18.02;;;;;;;6.76;100.00;97233.22;4970922;28;20051;-61
2021/10/28 00:53:48;;;;;;;28.80;18.02;;;;;;;6.81;100.00;97227.56;4987819;28;20558;-62
2021/10/28 00:56:14;;;;;;;27.00;16.40;;;;;;;6.91;100.00;97225.59;4990246;28;20132;-62
2021/10/28 00:58:39;;;;;;;27.58;16.40;;;;;;;6.94;100.00;97231.19;4989089;28;20034;-62
2021/10/28 01:01:06;;;;;;;30.05;15.50;;;;;;;6.94;100.00;97224.94;4971730;28;20038;-63
2021/10/28 01:03:33;;;;;;;31.73;16.95;;;;;;;6.88;100.00;97222.41;4981887;28;20061;-63
2021/10/28 01:06:00;;;;;;;31.30;17.45;;;;;;;6.96;100.00;97222.69;4979985;28;20059;-62
2021/10/28 01:08:26;;;;;;;29.25;16.55;;;;;;;7.02;100.00;97230.34;4977006;28;20129;-62
2021/10/28 01:10:52;;;;;;;31.08;16.58;;;;;;;7.09;100.00;97232.53;4982071;28;20042;-61
2021/10/28 01:13:20;;;;;;;30.02;16.17;;;;;;;7.03;100.00;97226.47;4970401;28;20073;-61
2021/10/28 01:15:47;;;;;;;25.05;14.85;;;;;;;6.95;100.00;97234.69;4979279;28;20042;-61
2021/10/28 01:18:15;;;;;;;26.25;15.25;;;;;;;6.92;100.00;97235.38;4973995;28;20040;-62
2021/10/28 01:20:45;;;;;;;26.88;15.20;;;;;;;6.95;100.00;97240.16;4973585;28;20042;-61
2021/10/28 01:23:13;;;;;;;28.35;15.40;;;;;;;7.04;100.00;97230.00;4971092;28;20575;-61
2021/10/28 01:25:40;;;;;;;32.25;17.60;;;;;;;7.13;100.00;97236.22;4993979;28;20427;-62
2021/10/28 01:28:13;;;;;;;34.50;19.73;;;;;;;7.01;100.00;97223.28;4974835;28;20134;-62
2021/10/28 01:30:38;;;;;;;35.05;17.90;;;;;;;7.02;100.00;97229.53;4980203;28;20462;-61
2021/10/28 01:33:04;;;;;;;33.47;18.27;;;;;;;7.14;100.00;97221.44;4973285;28;20125;-62
2021/10/28 01:35:29;;;;;;;31.42;18.40;;;;;;;7.14;100.00;97217.94;4981764;28;20043;-61
2021/10/28 01:37:55;;;;;;;29.77;17.50;;;;;;;7.18;100.00;97218.84;4981599;28;20072;-61
2021/10/28 01:40:21;;;;;;;34.00;18.50;;;;;;;7.10;100.00;97212.34;4976602;28;20251;-60
2021/10/28 01:42:49;;;;;;;33.33;18.25;;;;;;;6.98;100.00;97215.78;4986910;28;20058;-62
2021/10/28 01:45:16;;;;;;;34.95;18.80;;;;;;;7.04;100.00;97210.94;4985567;28;20518;-61
2021/10/28 01:47:42;;;;;;;39.47;19.95;;;;;;;7.01;100.00;97223.28;4983284;28;20062;-62
2021/10/28 01:50:09;;;;;;;35.90;19.33;;;;;;;7.07;100.00;97218.44;4971711;28;20042;-63
2021/10/28 01:52:38;;;;;;;35.67;19.92;;;;;;;7.07;100.00;97219.22;4977670;28;20576;-63
2021/10/28 01:55:10;;;;;;;33.97;19.48;;;;;;;7.09;100.00;97216.19;4972076;28;20047;-63
2021/10/28 01:57:36;;;;;;;38.42;21.08;;;;;;;6.87;100.00;97214.56;4980411;28;20082;-61
2021/10/28 02:00:05;;;;;;;39.00;21.55;;;;;;;6.57;100.00;97219.22;4980516;28;20085;-65
2021/10/28 02:02:30;;;;;;;43.58;22.30;;;;;;;6.40;100.00;97215.44;4977881;28;20097;-61
2021/10/28 02:04:56;;;;;;;43.50;22.52;;;;;;;6.45;100.00;97212.53;4978190;28;20070;-60
2021/10/28 02:07:21;;;;;;;39.65;20.80;;;;;;;6.60;100.00;97207.69;4972778;28;20061;-61
2021/10/28 02:09:47;;;;;;;39.35;20.13;;;;;;;6.80;100.00;97211.56;4978285;28;20117;-60
2021/10/28 02:12:12;;;;;;;36.55;19.10;;;;;;;6.94;100.00;97209.41;4973185;28;20375;-61
2021/10/28 02:14:37;;;;;;;39.85;21.40;;;;;;;6.96;100.00;97209.88;4976805;28;20049;-59
2021/10/28 02:17:03;;;;;;;44.72;22.70;;;;;;;6.83;100.00;97208.97;4978492;28;20126;-64
2021/10/28 02:19:29;;;;;;;40.72;22.10;;;;;;;6.70;100.00;97205.38;4974253;28;20046;-62
2021/10/28 02:21:54;;;;;;;38.33;20.27;;;;;;;6.75;100.00;97222.63;4979659;28;20046;-61
2021/10/28 02:24:19;;;;;;;41.28;21.25;;;;;;;6.80;100.00;97212.34;4976291;28;20035;-60
2021/10/28 02:26:45;;;;;;;39.92;21.45;;;;;;;6.99;100.00;97208.41;4980321;28;20096;-59
2021/10/28 02:29:11;;;;;;;38.85;21.25;;;;;;;7.18;100.00;97206.03;4971461;28;20480;-61
2021/10/28 02:31:36;;;;;;;39.53;20.92;;;;;;;7.14;100.00;97205.09;4980838;28;20073;-61
2021/10/28 02:34:02;;;;;;;36.40;19.70;;;;;;;7.07;100.00;97202.88;4977937;28;20039;-64
2021/10/28 02:36:28;;;;;;;36.55;20.40;;;;;;;7.05;100.00;97199.69;4975711;28;20041;-61
2021/10/28 02:38:53;;;;;;;44.47;22.25;;;;;;;7.04;100.00;97203.56;4979659;28;20061;-62
2021/10/28 02:41:18;;;;;;;38.40;21.55;;;;;;;6.93;100.00;97194.19;4974537;28;20399;-62
2021/10/28 02:43:44;;;;;;;46.20;23.33;;;;;;;6.79;100.00;97208.06;4978768;28;20038;-62
2021/10/28 02:46:10;;;;;;;44.35;22.73;;;;;;;6.76;100.00;97202.47;4975130;28;20157;-64
2021/10/28 02:48:36;;;;;;;49.80;24.55;;;;;;;6.64;100.00;97195.00;4975313;28;20050;-63
2021/10/28 02:51:01;;;;;;;60.47;26.35;;;;;;;6.49;100.00;97199.09;4980253;28;20407;-65
2021/10/28 02:53:27;;;;;;;58.08;26.80;;;;;;;6.44;100.00;97201.97;4976633;28;20042;-64
2021/10/28 02:55:53;;;;;;;63.13;29.50;;;;;;;6.41;100.00;97198.00;4987831;28;20061;-64
2021/10/28 02:58:18;;;;;;;70.28;31.65;;;;;;;6.41;100.00;97203.44;4990219;28;20468;-64
2021/10/28 03:00:44;;;;;;;67.82;30.98;;;;;;;6.47;100.00;97204.84;4983557;28;20491;-62
2021/10/28 03:03:10;;;;;;;76.95;30.65;;;;;;;6.63;100.00;97212.47;4975696;28;20042;-64
2021/10/28 03:05:36;;;;;;;60.65;29.70;;;;;;;6.71;100.00;97200.72;4995549;28;20026;-64
2021/10/28 03:08:04;;;;;;;62.92;29.45;;;;;;;6.67;100.00;97197.88;4985438;28;20447;-65
2021/10/28 03:10:29;;;;;;;70.45;32.13;;;;;;;6.68;100.00;97209.53;4979007;28;20537;-65
2021/10/28 03:12:55;;;;;;;79.43;35.50;;;;;;;6.74;100.00;97189.19;4982072;28;20050;-62
2021/10/28 03:15:22;;;;;;;83.78;33.78;;;;;;;6.73;100.00;97197.69;4976151;28;20101;-61
2021/10/28 03:26:07;;;;;;;82.25;32.55;;;;;;;6.76;100.00;97188.84;4974885;28;20053;-62
2021/10/28 03:28:33;;;;;;;74.63;33.33;;;;;;;6.79;100.00;97178.09;4983989;28;20030;-64
2021/10/28 03:30:58;;;;;;;73.22;32.67;;;;;;;6.86;100.00;97180.28;4982953;28;20077;-64
2021/10/28 03:33:24;;;;;;;78.28;33.60;;;;;;;6.99;100.00;97179.25;4995284;28;20674;-65
2021/10/28 03:35:51;;;;;;;74.55;32.70;;;;;;;6.98;100.00;97179.56;4996710;28;20126;-63
2021/10/28 03:38:29;;;;;;;78.07;34.45;;;;;;;6.95;100.00;97188.41;4979467;28;20077;-64
2021/10/28 03:41:27;;;;;;;88.13;35.80;;;;;;;6.92;100.00;97176.25;4987082;28;20046;-64
2021/10/28 03:44:19;;;;;;;82.25;33.83;;;;;;;6.92;100.00;97183.63;4998922;28;20494;-63
2021/10/28 03:46:59;;;;;;;76.85;32.45;;;;;;;6.87;100.00;97177.22;4982909;28;20205;-64
2021/10/28 03:57:46;;;;;;;84.00;33.72;;;;;;;6.95;100.00;97183.78;4970152;28;20043;-62
2021/10/28 04:08:36;;;;;;;95.70;35.10;;;;;;;7.00;100.00;97182.75;4973464;28;20077;-61
2021/10/28 04:30:17;;;;;;;98.97;36.28;;;;;;;7.04;100.00;97187.22;4972138;28;20116;-63
2021/10/28 04:32:44;;;;;;;101.47;38.95;;;;;;;7.02;100.00;97183.22;4982876;28;20049;-61
2021/10/28 04:35:10;;;;;;;105.20;38.40;;;;;;;7.02;100.00;97181.31;4977587;28;20042;-64
2021/10/28 04:37:40;;;;;;;102.35;38.00;;;;;;;7.03;100.00;97185.63;4978616;28;20069;-63
2021/10/28 04:40:06;;;;;;;109.07;41.05;;;;;;;7.02;100.00;97184.03;4973628;28;20544;-65
2021/10/28 04:42:32;;;;;;;99.40;39.17;;;;;;;7.01;100.00;97193.34;4980490;28;20042;-65
2021/10/28 04:44:58;;;;;;;109.95;39.40;;;;;;;7.00;100.00;97178.09;4982187;28;20051;-64
2021/10/28 04:47:23;;;;;;;104.55;39.25;;;;;;;7.04;100.00;97181.78;4976466;28;20050;-65
2021/10/28 04:49:49;;;;;;;96.25;38.85;;;;;;;7.03;100.00;97182.09;4980820;28;20050;-63
2021/10/28 04:52:14;;;;;;;98.32;38.17;;;;;;;7.02;100.00;97175.06;4976264;28;20043;-63
2021/10/28 04:54:40;;;;;;;98.13;37.35;;;;;;;7.01;100.00;97178.94;4977246;28;20049;-64
2021/10/28 04:57:06;;;;;;;101.30;38.45;;;;;;;6.99;100.00;97173.81;4976619;28;20038;-62
2021/10/28 04:59:32;;;;;;;100.70;39.20;;;;;;;7.00;100.00;97177.31;4976726;28;20068;-61
2021/10/28 05:01:57;;;;;;;101.60;38.08;;;;;;;7.05;100.00;97174.41;4979802;28;20042;-61
2021/10/28 05:04:24;;;;;;;96.10;39.05;;;;;;;7.12;100.00;97180.13;4975745;28;20328;-62
2021/10/28 05:06:49;;;;;;;94.85;37.28;;;;;;;7.10;100.00;97167.97;4983586;28;20057;-60
2021/10/28 05:09:23;;;;;;;94.97;37.00;;;;;;;6.97;100.00;97167.06;4975918;28;20042;-62
2021/10/28 05:11:49;;;;;;;93.90;37.30;;;;;;;6.96;100.00;97174.47;4982646;28;20137;-62
2021/10/28 05:14:14;;;;;;;88.75;36.80;;;;;;;7.01;100.00;97173.47;4973714;28;20256;-64
2021/10/28 05:16:40;;;;;;;93.10;35.63;;;;;;;7.03;100.00;97163.03;4979822;28;20035;-64
2021/10/28 05:19:05;;;;;;;92.10;36.70;;;;;;;7.01;100.00;97166.09;4977661;28;20042;-60
2021/10/28 05:21:31;;;;;;;98.20;35.55;;;;;;;6.99;100.00;97164.84;4976816;28;20042;-61
2021/10/28 05:23:57;;;;;;;102.68;37.97;;;;;;;7.00;100.00;97163.69;4980747;28;20100;-62
2021/10/28 05:26:22;;;;;;;99.32;35.88;;;;;;;6.96;100.00;97157.34;4974912;28;20047;-62
2021/10/28 05:28:48;;;;;;;94.10;34.33;;;;;;;6.95;100.00;97153.81;4981326;28;20058;-62
2021/10/28 05:31:13;;;;;;;95.93;36.25;;;;;;;6.87;100.00;97149.22;4975659;28;20099;-60
2021/10/28 05:33:39;;;;;;;92.88;33.17;;;;;;;6.86;100.00;97156.59;5017680;28;20068;-61
2021/10/28 05:36:05;;;;;;;92.82;35.00;;;;;;;6.91;100.00;97152.06;5006253;28;20053;-63
2021/10/28 05:38:30;;;;;;;96.55;36.53;;;;;;;6.89;100.00;97155.13;4988806;28;20065;-62
2021/10/28 05:40:55;;;;;;;87.57;34.75;;;;;;;6.94;100.00;97156.88;5005398;28;20422;-63
2021/10/28 05:43:21;;;;;;;79.80;31.92;;;;;;;7.01;100.00;97148.97;4983022;28;20049;-62
2021/10/28 05:45:48;;;;;;;77.65;31.55;;;;;;;7.01;100.00;97159.88;5013853;28;20147;-62
2021/10/28 05:48:13;;;;;;;74.00;30.85;;;;;;;7.01;100.00;97166.09;4990340;28;20584;-61
2021/10/28 05:50:41;;;;;;;68.75;29.80;;;;;;;7.21;100.00;97160.97;4984369;28;20077;-61
2021/10/28 05:53:08;;;;;;;65.43;27.73;;;;;;;7.22;100.00;97157.13;4984640;28;20054;-61
2021/10/28 05:55:34;;;;;;;69.15;29.90;;;;;;;7.26;100.00;97163.50;4991684;28;20103;-60
2021/10/28 05:57:59;;;;;;;64.88;28.63;;;;;;;7.23;100.00;97166.91;4995500;28;20046;-61
2021/10/28 06:00:25;;;;;;;71.65;28.25;;;;;;;7.10;100.00;97163.31;4975057;28;20042;-62
2021/10/28 06:02:52;;;;;;;56.38;26.08;;;;;;;7.17;100.00;97162.78;4986053;28;20038;-61
2021/10/28 06:05:18;;;;;;;62.15;28.25;;;;;;;7.07;100.00;97156.59;4961928;28;20384;-62
2021/10/28 06:07:44;;;;;;;61.63;28.90;;;;;;;7.02;100.00;97161.44;4981281;28;20045;-62
2021/10/28 06:10:12;;;;;;;64.05;26.92;;;;;;;7.00;100.00;97153.59;4973152;28;20046;-63
2021/10/28 06:12:43;;;;;;;70.68;28.30;;;;;;;6.98;100.00;97144.19;4979041;28;20507;-64
2021/10/28 06:15:11;;;;;;;63.17;28.25;;;;;;;7.00;100.00;97148.16;4993941;28;20572;-64
2021/10/28 06:17:44;;;;;;;63.45;26.65;;;;;;;7.06;100.00;97146.06;4964386;28;20046;-63
2021/10/28 06:20:10;;;;;;;57.45;27.38;;;;;;;7.19;100.00;97146.91;4981083;28;20042;-64
2021/10/28 06:22:35;;;;;;;56.83;24.20;;;;;;;7.40;100.00;97152.31;4997822;28;20038;-63
2021/10/28 06:25:01;;;;;;;56.15;24.48;;;;;;;7.42;100.00;97156.31;4999794;28;20057;-61
2021/10/28 06:27:26;;;;;;;56.42;25.90;;;;;;;7.44;100.00;97151.31;5000024;28;20687;-61
2021/10/28 06:29:52;;;;;;;53.05;24.58;;;;;;;7.58;100.00;97156.50;4990039;28;20045;-62
2021/10/28 06:32:17;;;;;;;45.42;22.60;;;;;;;7.64;100.00;97159.81;4986585;28;20042;-63
2021/10/28 06:34:43;;;;;;;43.33;24.00;;;;;;;7.68;100.00;97154.47;4990463;28;20144;-63
2021/10/28 06:37:10;;;;;;;44.22;22.63;;;;;;;7.76;100.00;97159.03;5004905;28;20410;-63
2021/10/28 06:39:36;;;;;;;49.28;21.60;;;;;;;7.88;100.00;97161.78;5020839;28;20672;-61
2021/10/28 06:42:03;;;;;;;42.78;19.88;;;;;;;7.89;100.00;97165.31;5017436;28;20586;-64
2021/10/28 06:44:29;;;;;;;42.58;20.20;;;;;;;7.74;100.00;97158.56;5002766;28;20128;-60
2021/10/28 06:46:55;;;;;;;40.88;19.73;;;;;;;7.82;100.00;97163.16;4988739;28;20447;-63
2021/10/28 06:49:21;;;;;;;47.90;20.45;;;;;;;7.91;100.00;97163.06;5002344;28;20072;-64
2021/10/28 06:51:47;;;;;;;42.08;20.10;;;;;;;7.90;100.00;97173.16;5018705;28;20042;-63
2021/10/28 06:57:00;;;;;;;40.35;19.20;;;;;;;7.90;100.00;97167.69;5016096;28;20034;-61
2021/10/28 07:02:30;;;;;;;40.88;19.80;;;;;;;7.98;100.00;97163.28;4979173;28;20838;-62
2021/10/28 07:04:58;;;;;;;42.28;18.80;;;;;;;8.13;100.00;97151.72;4993724;28;20053;-62
2021/10/28 07:07:25;;;;;;;38.55;19.08;;;;;;;8.10;100.00;97157.06;5004365;28;20847;-62
2021/10/28 07:15:11;;;;;;;38.72;19.05;;;;;;;8.14;100.00;97171.59;4973227;28;20046;-63
2021/10/28 07:59:50;;;;;;;47.83;22.85;;;;;;;8.45;100.00;97162.91;4989212;28;20054;-62
2021/10/28 08:19:18;;;;;;;35.03;16.80;;;;;;;8.39;100.00;97156.84;4995891;28;20104;-63
2021/10/28 08:22:07;;;;;;;;;;;;;;;8.34;100.00;97148.09;5020792;28;20197;-63
2021/10/28 08:28:41;;;;;;;33.97;18.00;;;;;;;8.30;100.00;97153.44;5005721;28;19913;-61
2021/10/28 08:30:09;;;;;;;33.75;17.52;;;;;;;8.31;100.00;97151.50;4977778;28;20034;-63
2021/10/28 08:32:36;;;;;;;34.67;17.25;;;;;;;8.39;100.00;97151.41;4981858;28;20412;-64
2021/10/28 08:35:02;;;;;;;30.35;16.25;;;;;;;8.48;100.00;97155.97;4993083;28;20034;-62
2021/10/28 08:37:50;;;;;;;30.65;16.27;;;;;;;8.57;100.00;97152.00;4997985;28;20567;-62
2021/10/28 08:40:17;;;;;;;38.30;18.25;;;;;;;8.46;100.00;97144.59;4970624;28;20046;-63
2021/10/28 08:42:46;;;;;;;37.00;17.58;;;;;;;8.47;100.00;97143.47;4974142;28;20616;-59
2021/10/28 08:45:15;;;;;;;37.10;17.00;;;;;;;8.46;100.00;97141.88;4975856;28;20046;-60
2021/10/28 08:47:49;;;;;;;34.95;17.33;;;;;;;8.73;100.00;97132.16;4982821;28;20520;-61
2021/10/28 08:50:40;;;;;;;31.10;16.83;;;;;;;8.90;100.00;97134.66;4977676;28;20053;-60
2021/10/28 08:55:55;;;;;;;32.33;16.85;;;;;;;9.03;100.00;97124.47;4973531;28;20042;-61
2021/10/28 09:29:54;;;;;;;34.05;17.48;;;;;;;9.56;100.00;97116.19;4969268;28;20076;-65
2021/10/28 09:32:14;;;;;;;33.38;17.42;;;;;;;9.65;100.00;97107.81;4969150;28;20038;-61
2021/10/28 09:46:31;;;;;;;33.58;17.60;;;;;;;10.24;97.36;97108.91;4985276;28;20046;-62
2021/10/28 09:51:49;;;;;;;33.88;18.10;;;;;;;10.27;97.20;97117.22;4975779;28;20043;-60
2021/10/28 09:54:32;;;;;;;33.53;17.95;;;;;;;10.25;97.13;97119.50;4968895;28;20777;-61
2021/10/28 09:59:43;;;;;;;32.83;17.92;;;;;;;10.49;94.88;97118.53;4980637;28;20073;-61
2021/10/28 10:05:04;;;;;;;36.33;18.00;;;;;;;10.44;95.69;97123.50;4974757;28;20496;-59
2021/10/28 10:07:30;;;;;;;34.50;18.75;;;;;;;10.75;94.13;97125.41;5004665;28;20061;-61
2021/10/28 10:09:57;;;;;;;35.42;18.58;;;;;;;10.96;92.02;97127.00;4996299;28;20049;-60
2021/10/28 10:12:23;;;;;;;28.80;15.75;;;;;;;11.01;90.22;97129.47;4979899;28;20531;-60
2021/10/28 10:14:49;;;;;;;35.92;17.88;;;;;;;11.07;89.66;97128.84;5000835;28;20518;-61
2021/10/28 10:17:16;;;;;;;33.45;18.58;;;;;;;11.00;90.50;97128.69;4993074;28;20049;-61
2021/10/28 10:19:47;;;;;;;38.40;16.98;;;;;;;11.17;89.27;97129.44;4989405;28;20126;-60
2021/10/28 10:25:18;;;;;;;31.35;17.35;;;;;;;11.43;88.14;97131.50;4979270;28;20042;-61
2021/10/28 12:17:07;;;;;;;25.05;13.27;;;;;;;15.91;62.88;97002.41;4988105;28;20050;-61
2021/10/28 12:53:11;;;;;;;15.45;10.85;;;;;;;17.02;56.63;96932.25;4979542;28;20038;-62
2021/10/28 12:56:05;;;;;;;18.00;12.20;;;;;;;16.40;59.68;96931.69;4983281;28;20447;-60
2021/10/28 14:17:33;;;;;;;29.67;16.98;;;;;;;11.95;83.70;96876.84;4995499;28;20049;-60
2021/10/28 14:38:25;;;;;;;36.15;19.60;;;;;;;11.39;89.38;96867.38;4985046;28;20031;-61
2021/10/28 15:29:55;;;;;;;32.58;18.67;;;;;;;11.20;90.47;96816.97;5001914;28;20121;-59
2021/10/28 15:35:38;;;;;;;32.90;17.30;;;;;;;11.18;90.33;96812.97;4987056;28;20046;-60
2021/10/28 15:43:39;;;;;;;31.65;18.42;;;;;;;10.83;92.73;96808.50;4967297;28;20053;-59
2021/10/28 15:49:43;;;;;;;32.17;18.17;;;;;;;10.82;92.73;96817.88;4974654;28;20147;-59
2021/10/28 16:21:51;;;;;;;39.33;20.85;;;;;;;9.15;100.00;96793.00;4983805;28;20114;-61
2021/10/28 16:24:17;;;;;;;42.22;22.13;;;;;;;8.85;100.00;96793.47;4961837;28;20117;-61
2021/10/28 16:26:42;;;;;;;41.60;22.67;;;;;;;8.65;100.00;96787.13;4974955;28;20511;-60
2021/10/28 16:29:11;;;;;;;43.75;22.45;;;;;;;8.38;100.00;96794.97;4966873;28;20034;-61
2021/10/28 16:31:36;;;;;;;43.30;22.70;;;;;;;8.15;100.00;96789.28;4969468;28;20097;-60
2021/10/28 16:34:03;;;;;;;47.55;22.88;;;;;;;8.01;100.00;96786.19;4972939;28;20431;-60
2021/10/28 16:36:29;;;;;;;44.53;22.00;;;;;;;7.93;100.00;96781.69;4967127;28;20129;-59
2021/10/28 16:38:57;;;;;;;53.10;22.88;;;;;;;7.85;100.00;96792.38;4972459;28;20488;-58
2021/10/28 16:41:22;;;;;;;40.60;20.83;;;;;;;7.82;100.00;96793.06;4964918;28;20594;-61
2021/10/28 16:43:48;;;;;;;38.00;20.17;;;;;;;7.82;100.00;96808.66;4981226;28;20499;-61
2021/10/28 16:46:13;;;;;;;45.33;22.58;;;;;;;7.82;100.00;96800.47;4971933;28;20038;-59
2021/10/28 16:48:41;;;;;;;49.42;21.52;;;;;;;7.79;100.00;96801.16;4971464;28;20171;-61
2021/10/28 16:51:06;;;;;;;51.13;23.70;;;;;;;7.57;100.00;96797.81;4963678;28;20081;-61
2021/10/28 16:53:33;;;;;;;57.45;28.98;;;;;;;7.32;100.00;96804.44;4971285;28;20046;-58
2021/10/28 16:55:59;;;;;;;66.80;31.83;;;;;;;7.24;100.00;96795.25;4974295;28;20034;-61
2021/10/28 16:58:24;;;;;;;48.00;25.90;;;;;;;7.25;100.00;96799.56;4969770;28;20039;-59
2021/10/28 17:00:50;;;;;;;51.42;27.67;;;;;;;7.23;100.00;96801.84;4972370;28;20035;-60
2021/10/28 17:03:18;;;;;;;58.20;31.65;;;;;;;7.14;100.00;96803.88;4966158;28;20050;-61
2021/10/28 17:05:44;;;;;;;48.00;23.60;;;;;;;7.04;100.00;96808.66;4954535;28;20031;-60
2021/10/28 17:08:10;;;;;;;45.22;22.65;;;;;;;7.05;100.00;96810.22;4969159;28;20031;-58
2021/10/28 17:10:35;;;;;;;44.63;21.70;;;;;;;7.03;100.00;96817.16;4971726;28;20081;-59
2021/10/28 17:13:01;;;;;;;41.80;21.88;;;;;;;7.02;100.00;96821.00;4973424;28;20045;-56
2021/10/28 17:15:27;;;;;;;41.80;22.10;;;;;;;6.88;100.00;96819.44;4991284;28;20054;-57
2021/10/28 17:17:52;;;;;;;54.78;28.60;;;;;;;6.63;100.00;96815.09;4978008;28;20054;-57
2021/10/28 17:20:19;;;;;;;60.33;27.63;;;;;;;6.51;100.00;96810.41;4967993;28;20073;-59
2021/10/28 17:22:44;;;;;;;59.58;26.52;;;;;;;6.44;100.00;96813.69;4973296;28;20046;-56
2021/10/28 17:25:18;;;;;;;50.58;25.02;;;;;;;6.36;100.00;96820.03;4966350;28;20052;-60
2021/10/28 17:27:47;;;;;;;44.00;20.65;;;;;;;6.23;100.00;96823.81;4974880;28;20043;-58
2021/10/28 17:30:14;;;;;;;42.15;21.52;;;;;;;6.32;100.00;96814.47;4966549;28;20094;-59
2021/10/28 17:32:44;;;;;;;48.72;21.55;;;;;;;6.45;100.00;96825.38;4987214;28;20042;-61
2021/10/28 17:35:11;;;;;;;47.53;20.73;;;;;;;6.53;100.00;96826.41;4988334;28;20030;-60
2021/10/28 17:37:37;;;;;;;47.85;22.10;;;;;;;6.46;100.00;96819.59;4980294;28;20026;-59
2021/10/28 17:40:05;;;;;;;50.10;22.15;;;;;;;6.47;100.00;96814.94;4980559;28;20038;-60
2021/10/28 17:42:30;;;;;;;59.25;22.80;;;;;;;6.45;100.00;96828.09;4983495;28;20026;-59
2021/10/28 17:44:57;;;;;;;47.42;21.05;;;;;;;6.45;100.00;96814.50;4995280;28;20126;-59
2021/10/28 17:47:24;;;;;;;47.08;21.65;;;;;;;6.36;100.00;96821.97;4986195;28;20824;-60
2021/10/28 17:49:51;;;;;;;47.45;21.67;;;;;;;6.35;100.00;96818.41;4987127;28;20070;-58
2021/10/28 17:52:17;;;;;;;49.95;22.73;;;;;;;6.17;100.00;96820.53;4988684;28;20471;-61
2021/10/28 17:54:44;;;;;;;52.50;25.90;;;;;;;6.12;100.00;96821.53;4990319;28;20038;-60
2021/10/28 17:57:10;;;;;;;55.05;26.35;;;;;;;6.05;100.00;96818.56;4983765;28;20957;-61
2021/10/28 17:59:36;;;;;;;56.47;26.50;;;;;;;5.99;100.00;96809.00;4990657;28;20050;-62
2021/10/28 18:02:02;;;;;;;42.60;21.05;;;;;;;6.00;100.00;96813.34;4989037;28;20034;-60
2021/10/28 18:04:27;;;;;;;38.30;19.30;;;;;;;5.89;100.00;96820.28;4993964;28;20046;-60
2021/10/28 18:06:53;;;;;;;34.63;18.95;;;;;;;5.92;100.00;96816.88;4982614;28;20041;-59
2021/10/28 18:09:19;;;;;;;39.55;18.63;;;;;;;5.88;100.00;96810.53;4986757;28;20038;-60
2021/10/28 18:11:45;;;;;;;36.63;18.52;;;;;;;5.91;100.00;96815.31;5002688;28;20046;-57
2021/10/28 18:14:15;;;;;;;29.30;17.63;;;;;;;5.89;100.00;96806.69;4987878;28;20038;-61
2021/10/28 18:16:41;;;;;;;29.80;16.10;;;;;;;5.90;100.00;96809.06;4984378;28;20073;-59
2021/10/28 18:19:08;;;;;;;25.30;14.27;;;;;;;5.88;100.00;96811.31;4974888;28;20491;-61
2021/10/28 18:21:37;;;;;;;30.02;15.23;;;;;;;5.84;100.00;96810.41;4978398;28;20042;-59
2021/10/28 18:24:03;;;;;;;75.53;31.25;;;;;;;5.78;100.00;96805.47;4976096;28;20077;-61
2021/10/28 18:26:30;;;;;;;77.97;31.92;;;;;;;5.74;100.00;96798.03;4982440;28;20566;-60
2021/10/28 18:28:57;;;;;;;39.30;19.17;;;;;;;5.76;100.00;96811.25;4987285;28;20046;-58
2021/10/28 18:31:24;;;;;;;34.42;16.67;;;;;;;5.71;100.00;96804.09;4975537;28;20770;-59
2021/10/28 18:33:51;;;;;;;31.98;15.93;;;;;;;5.67;100.00;96805.09;4981366;28;20050;-60
2021/10/28 18:36:17;;;;;;;33.53;16.60;;;;;;;5.29;100.00;96806.00;4974883;28;20499;-59
2021/10/28 18:38:45;;;;;;;38.47;19.70;;;;;;;4.95;100.00;96799.66;4993341;28;20069;-58
2021/10/28 18:41:17;;;;;;;37.78;19.77;;;;;;;4.66;100.00;96798.50;4983911;28;20042;-56
2021/10/28 18:43:43;;;;;;;43.25;22.38;;;;;;;4.58;100.00;96800.13;4983074;28;20038;-58
2021/10/28 18:46:10;;;;;;;40.90;21.02;;;;;;;4.45;100.00;96794.91;4975011;28;20050;-61
2021/10/28 18:48:36;;;;;;;43.03;21.13;;;;;;;4.35;100.00;96794.13;4979837;28;20541;-61
2021/10/28 18:51:04;;;;;;;39.90;20.17;;;;;;;4.35;100.00;96790.63;4977386;28;20089;-61
2021/10/28 18:53:34;;;;;;;42.83;21.83;;;;;;;4.37;100.00;96789.19;4979339;28;20073;-58
2021/10/28 18:56:00;;;;;;;43.90;20.33;;;;;;;4.42;100.00;96790.16;4996272;28;20051;-58
2021/10/28 18:58:25;;;;;;;42.85;20.30;;;;;;;4.40;100.00;96777.69;4997056;28;20072;-57
2021/10/28 19:00:51;;;;;;;34.95;17.83;;;;;;;4.38;100.00;96785.38;5000433;28;20046;-59
2021/10/28 19:03:18;;;;;;;36.63;18.45;;;;;;;4.39;100.00;96783.44;4988195;28;20038;-59
2021/10/28 19:05:44;;;;;;;35.05;17.70;;;;;;;4.54;100.00;96782.13;4979060;28;20057;-59
2021/10/28 19:08:10;;;;;;;31.98;17.58;;;;;;;4.55;100.00;96781.00;4970013;28;20050;-60
2021/10/28 19:10:36;;;;;;;31.85;16.35;;;;;;;4.60;100.00;96781.59;4988932;28;20053;-60
2021/10/28 19:13:02;;;;;;;27.80;15.23;;;;;;;4.59;100.00;96774.59;4987144;28;20104;-62
2021/10/28 19:15:27;;;;;;;26.38;14.50;;;;;;;4.57;100.00;96776.84;5009065;28;20041;-60
2021/10/28 19:17:53;;;;;;;28.77;15.27;;;;;;;4.58;100.00;96780.34;4995997;28;20049;-60
2021/10/28 19:20:19;;;;;;;26.35;14.77;;;;;;;4.67;100.00;96770.25;4988253;28;20516;-57
2021/10/28 19:22:45;;;;;;;23.52;14.50;;;;;;;4.71;100.00;96775.81;5000677;28;20042;-58
2021/10/28 19:25:11;;;;;;;27.08;15.60;;;;;;;4.47;100.00;96766.34;4976599;28;20471;-60
2021/10/28 19:27:37;;;;;;;26.08;14.45;;;;;;;4.16;100.00;96766.59;4981009;28;20042;-60
2021/10/28 19:32:50;;;;;;;28.33;15.13;;;;;;;3.87;100.00;96770.00;4980822;28;20133;-60
2021/10/28 19:35:17;;;;;;;27.40;15.88;;;;;;;3.89;100.00;96765.88;4975567;28;20046;-57
2021/10/28 19:40:23;;;;;;;27.02;15.15;;;;;;;4.12;100.00;96771.88;4974550;28;20039;-58
2021/10/28 19:47:46;;;;;;;24.30;14.05;;;;;;;3.89;100.00;96765.88;4975241;28;20043;-58
2021/10/28 19:50:14;;;;;;;24.98;13.50;;;;;;;3.82;100.00;96768.28;4982188;28;20411;-60
2021/10/28 19:52:42;;;;;;;32.40;16.13;;;;;;;3.69;100.00;96767.34;5000539;28;20108;-60
2021/10/28 19:55:08;;;;;;;31.77;15.15;;;;;;;3.85;100.00;96754.06;4997671;28;20438;-61
2021/10/28 19:57:40;;;;;;;27.02;14.48;;;;;;;4.04;100.00;96753.72;4995924;28;20046;-59
2021/10/28 20:00:24;;;;;;;24.02;13.10;;;;;;;4.05;100.00;96760.72;4980480;28;20060;-61
2021/10/28 20:03:18;;;;;;;26.17;13.48;;;;;;;4.22;100.00;96754.47;4993679;28;20469;-59
2021/10/28 20:21:06;;;;;;;26.30;13.85;;;;;;;4.16;100.00;96744.91;4999842;28;20489;-60
2021/10/28 20:23:32;;;;;;;24.17;11.68;;;;;;;4.12;100.00;96742.06;5015130;28;20049;-59